sensor_id;sensor_type;location;lat;lon;timestamp;temperature;humidity
23063;DHT22;11699;43.704;10.430;2023-08-31T00:02:07;19.10;99.90
23063;DHT22;11699;43.704;10.430;2023-08-31T00:04:35;19.10;99.90
23063;DHT22;11699;43.704;10.430;2023-08-31T00:07:02;19.20;99.90
23063;DHT22;11699;43.704;10.430;2023-08-31T00:09:30;19.10;99.90
23063;DHT22;11699;43.704;10.430;2023-08-31T00:11:57;19.20;99.90
23063;DHT22;11699;43.704;10.430;2023-08-31T00:14:24;19.20;99.90
23063;DHT22;11699;43.704;10.430;2023-08-31T00:16:52;19.20;99.90
23063;DHT22;11699;43.704;10.430;2023-08-31T00:19:21;19.30;99.90
23063;DHT22;11699;43.704;10.430;2023-08-31T00:21:48;19.30;99.90
23063;DHT22;11699;43.704;10.430;2023-08-31T00:24:15;19.30;99.90
23063;DHT22;11699;43.704;10.430;2023-08-31T00:26:42;19.40;99.90
23063;DHT22;11699;43.704;10.430;2023-08-31T00:29:10;19.50;99.90
23063;DHT22;11699;43.704;10.430;2023-08-31T00:31:37;19.50;99.90
23063;DHT22;11699;43.704;10.430;2023-08-31T00:34:04;19.50;99.90
23063;DHT22;11699;43.704;10.430;2023-08-31T00:36:34;19.50;99.90
23063;DHT22;11699;43.704;10.430;2023-08-31T00:39:03;19.60;99.90
23063;DHT22;11699;43.704;10.430;2023-08-31T00:41:34;19.60;99.90
23063;DHT22;11699;43.704;10.430;2023-08-31T00:44:01;19.60;99.90
23063;DHT22;11699;43.704;10.430;2023-08-31T00:46:30;19.60;99.90
23063;DHT22;11699;43.704;10.430;2023-08-31T00:48:57;19.60;99.90
23063;DHT22;11699;43.704;10.430;2023-08-31T00:51:25;19.60;99.90
23063;DHT22;11699;43.704;10.430;2023-08-31T00:53:53;19.60;99.90
23063;DHT22;11699;43.704;10.430;2023-08-31T00:56:21;19.70;99.90
23063;DHT22;11699;43.704;10.430;2023-08-31T00:58:48;19.70;99.90
23063;DHT22;11699;43.704;10.430;2023-08-31T01:01:22;19.80;99.90
23063;DHT22;11699;43.704;10.430;2023-08-31T01:03:58;19.70;99.90
23063;DHT22;11699;43.704;10.430;2023-08-31T01:06:35;19.70;99.90
23063;DHT22;11699;43.704;10.430;2023-08-31T01:09:09;19.70;99.90
23063;DHT22;11699;43.704;10.430;2023-08-31T01:11:52;19.70;99.90
23063;DHT22;11699;43.704;10.430;2023-08-31T01:14:25;19.70;99.90
23063;DHT22;11699;43.704;10.430;2023-08-31T01:16:55;19.70;99.90
23063;DHT22;11699;43.704;10.430;2023-08-31T01:19:35;19.70;99.90
23063;DHT22;11699;43.704;10.430;2023-08-31T01:22:11;19.70;99.90
23063;DHT22;11699;43.704;10.430;2023-08-31T01:24:43;19.80;99.90
23063;DHT22;11699;43.704;10.430;2023-08-31T01:27:10;19.80;99.90
23063;DHT22;11699;43.704;10.430;2023-08-31T01:29:38;19.80;99.90
23063;DHT22;11699;43.704;10.430;2023-08-31T01:32:06;19.90;99.90
23063;DHT22;11699;43.704;10.430;2023-08-31T01:34:33;19.80;99.90
23063;DHT22;11699;43.704;10.430;2023-08-31T01:37:06;19.90;99.90
23063;DHT22;11699;43.704;10.430;2023-08-31T01:39:39;19.80;99.90
23063;DHT22;11699;43.704;10.430;2023-08-31T01:42:12;19.80;99.90
23063;DHT22;11699;43.704;10.430;2023-08-31T01:44:42;19.80;99.90
23063;DHT22;11699;43.704;10.430;2023-08-31T01:47:10;19.80;99.90
23063;DHT22;11699;43.704;10.430;2023-08-31T01:49:39;19.80;99.90
23063;DHT22;11699;43.704;10.430;2023-08-31T01:52:07;19.80;99.90
23063;DHT22;11699;43.704;10.430;2023-08-31T01:54:34;19.80;99.90
23063;DHT22;11699;43.704;10.430;2023-08-31T01:57:03;19.80;99.90
23063;DHT22;11699;43.704;10.430;2023-08-31T01:59:33;19.80;99.90
23063;DHT22;11699;43.704;10.430;2023-08-31T02:02:01;19.80;99.90
23063;DHT22;11699;43.704;10.430;2023-08-31T02:04:28;19.70;99.90
23063;DHT22;11699;43.704;10.430;2023-08-31T02:06:55;19.70;99.90
23063;DHT22;11699;43.704;10.430;2023-08-31T02:09:22;19.70;99.90
23063;DHT22;11699;43.704;10.430;2023-08-31T02:11:49;19.60;99.90
23063;DHT22;11699;43.704;10.430;2023-08-31T02:14:17;19.50;99.90
23063;DHT22;11699;43.704;10.430;2023-08-31T02:16:45;19.40;99.90
23063;DHT22;11699;43.704;10.430;2023-08-31T02:19:12;19.20;99.90
23063;DHT22;11699;43.704;10.430;2023-08-31T02:21:39;19.10;99.90
23063;DHT22;11699;43.704;10.430;2023-08-31T02:24:07;19.00;99.90
23063;DHT22;11699;43.704;10.430;2023-08-31T02:26:35;19.00;99.90
23063;DHT22;11699;43.704;10.430;2023-08-31T02:29:03;18.90;99.90
23063;DHT22;11699;43.704;10.430;2023-08-31T02:31:30;18.80;99.90
23063;DHT22;11699;43.704;10.430;2023-08-31T02:33:59;18.80;99.90
23063;DHT22;11699;43.704;10.430;2023-08-31T02:36:26;18.80;99.90
23063;DHT22;11699;43.704;10.430;2023-08-31T02:38:53;18.70;99.90
23063;DHT22;11699;43.704;10.430;2023-08-31T02:41:20;18.60;99.90
23063;DHT22;11699;43.704;10.430;2023-08-31T02:43:50;18.60;99.90
23063;DHT22;11699;43.704;10.430;2023-08-31T02:46:17;18.50;99.90
23063;DHT22;11699;43.704;10.430;2023-08-31T02:48:45;18.50;99.90
23063;DHT22;11699;43.704;10.430;2023-08-31T02:51:14;18.50;99.90
23063;DHT22;11699;43.704;10.430;2023-08-31T02:53:41;18.50;99.90
23063;DHT22;11699;43.704;10.430;2023-08-31T02:56:09;18.50;99.90
23063;DHT22;11699;43.704;10.430;2023-08-31T02:58:36;18.50;99.90
23063;DHT22;11699;43.704;10.430;2023-08-31T03:01:07;18.50;99.90
23063;DHT22;11699;43.704;10.430;2023-08-31T03:03:37;18.50;99.90
23063;DHT22;11699;43.704;10.430;2023-08-31T03:06:05;18.50;99.90
23063;DHT22;11699;43.704;10.430;2023-08-31T03:08:34;18.50;99.90
23063;DHT22;11699;43.704;10.430;2023-08-31T03:11:02;18.40;99.90
23063;DHT22;11699;43.704;10.430;2023-08-31T03:13:30;18.40;99.90
23063;DHT22;11699;43.704;10.430;2023-08-31T03:15:57;18.30;99.90
23063;DHT22;11699;43.704;10.430;2023-08-31T03:18:24;18.30;99.90
23063;DHT22;11699;43.704;10.430;2023-08-31T03:20:52;18.30;99.90
23063;DHT22;11699;43.704;10.430;2023-08-31T03:23:19;18.40;99.90
23063;DHT22;11699;43.704;10.430;2023-08-31T03:25:47;18.40;99.90
23063;DHT22;11699;43.704;10.430;2023-08-31T03:28:14;18.40;99.90
23063;DHT22;11699;43.704;10.430;2023-08-31T03:30:41;18.30;99.90
23063;DHT22;11699;43.704;10.430;2023-08-31T03:33:10;18.30;99.90
23063;DHT22;11699;43.704;10.430;2023-08-31T03:35:37;18.40;99.90
23063;DHT22;11699;43.704;10.430;2023-08-31T03:38:05;18.50;99.90
23063;DHT22;11699;43.704;10.430;2023-08-31T03:40:32;18.50;99.90
23063;DHT22;11699;43.704;10.430;2023-08-31T03:43:00;18.50;99.90
23063;DHT22;11699;43.704;10.430;2023-08-31T03:45:27;18.50;99.90
23063;DHT22;11699;43.704;10.430;2023-08-31T03:47:55;18.40;99.90
23063;DHT22;11699;43.704;10.430;2023-08-31T03:50:22;18.40;99.90
23063;DHT22;11699;43.704;10.430;2023-08-31T03:52:49;18.30;99.90
23063;DHT22;11699;43.704;10.430;2023-08-31T03:55:17;18.30;99.90
23063;DHT22;11699;43.704;10.430;2023-08-31T03:57:44;18.20;99.90
23063;DHT22;11699;43.704;10.430;2023-08-31T04:00:13;18.30;99.90
23063;DHT22;11699;43.704;10.430;2023-08-31T04:02:42;18.20;99.90
23063;DHT22;11699;43.704;10.430;2023-08-31T04:05:09;18.30;99.90
23063;DHT22;11699;43.704;10.430;2023-08-31T04:07:36;18.40;99.90
23063;DHT22;11699;43.704;10.430;2023-08-31T04:10:04;18.40;99.90
23063;DHT22;11699;43.704;10.430;2023-08-31T04:12:31;18.50;99.90
23063;DHT22;11699;43.704;10.430;2023-08-31T04:15:00;18.40;99.90
23063;DHT22;11699;43.704;10.430;2023-08-31T04:17:29;18.40;99.90
23063;DHT22;11699;43.704;10.430;2023-08-31T04:19:56;18.50;99.90
23063;DHT22;11699;43.704;10.430;2023-08-31T04:22:23;18.40;99.90
23063;DHT22;11699;43.704;10.430;2023-08-31T04:24:51;18.30;99.90
23063;DHT22;11699;43.704;10.430;2023-08-31T04:27:18;18.10;99.90
23063;DHT22;11699;43.704;10.430;2023-08-31T04:29:46;18.00;99.90
23063;DHT22;11699;43.704;10.430;2023-08-31T04:32:14;17.90;99.90
23063;DHT22;11699;43.704;10.430;2023-08-31T04:34:42;17.80;99.90
23063;DHT22;11699;43.704;10.430;2023-08-31T04:37:10;17.80;99.90
23063;DHT22;11699;43.704;10.430;2023-08-31T04:39:37;17.90;99.90
23063;DHT22;11699;43.704;10.430;2023-08-31T04:42:04;17.90;99.90
23063;DHT22;11699;43.704;10.430;2023-08-31T04:44:31;17.90;99.90
23063;DHT22;11699;43.704;10.430;2023-08-31T04:46:58;17.90;99.90
23063;DHT22;11699;43.704;10.430;2023-08-31T04:49:26;17.90;99.90
23063;DHT22;11699;43.704;10.430;2023-08-31T04:51:55;17.90;99.90
23063;DHT22;11699;43.704;10.430;2023-08-31T04:54:23;17.90;99.90
23063;DHT22;11699;43.704;10.430;2023-08-31T04:56:50;17.90;99.90
23063;DHT22;11699;43.704;10.430;2023-08-31T04:59:17;17.90;99.90
23063;DHT22;11699;43.704;10.430;2023-08-31T05:01:44;17.90;99.90
23063;DHT22;11699;43.704;10.430;2023-08-31T05:04:11;17.90;99.90
23063;DHT22;11699;43.704;10.430;2023-08-31T05:06:38;17.80;99.90
23063;DHT22;11699;43.704;10.430;2023-08-31T05:09:07;17.70;99.90
23063;DHT22;11699;43.704;10.430;2023-08-31T05:11:35;17.70;99.90
23063;DHT22;11699;43.704;10.430;2023-08-31T05:14:02;17.80;99.90
23063;DHT22;11699;43.704;10.430;2023-08-31T05:16:29;17.90;99.90
23063;DHT22;11699;43.704;10.430;2023-08-31T05:18:57;17.90;99.90
23063;DHT22;11699;43.704;10.430;2023-08-31T05:21:24;17.90;99.90
23063;DHT22;11699;43.704;10.430;2023-08-31T05:23:51;17.90;99.90
23063;DHT22;11699;43.704;10.430;2023-08-31T05:26:20;18.10;99.90
23063;DHT22;11699;43.704;10.430;2023-08-31T05:28:47;18.20;99.90
23063;DHT22;11699;43.704;10.430;2023-08-31T05:31:14;18.20;99.90
23063;DHT22;11699;43.704;10.430;2023-08-31T05:33:42;18.30;99.90
23063;DHT22;11699;43.704;10.430;2023-08-31T05:36:09;18.30;99.90
23063;DHT22;11699;43.704;10.430;2023-08-31T05:38:37;18.20;99.90
23063;DHT22;11699;43.704;10.430;2023-08-31T05:41:06;18.10;99.90
23063;DHT22;11699;43.704;10.430;2023-08-31T05:43:35;18.00;99.90
23063;DHT22;11699;43.704;10.430;2023-08-31T05:46:02;18.10;99.90
23063;DHT22;11699;43.704;10.430;2023-08-31T05:48:30;18.00;99.90
23063;DHT22;11699;43.704;10.430;2023-08-31T05:50:57;18.10;99.90
23063;DHT22;11699;43.704;10.430;2023-08-31T05:53:24;18.10;99.90
23063;DHT22;11699;43.704;10.430;2023-08-31T05:55:54;18.00;99.90
23063;DHT22;11699;43.704;10.430;2023-08-31T05:58:29;18.20;99.90
23063;DHT22;11699;43.704;10.430;2023-08-31T06:00:58;18.20;99.90
23063;DHT22;11699;43.704;10.430;2023-08-31T06:03:25;18.30;99.90
23063;DHT22;11699;43.704;10.430;2023-08-31T06:05:53;18.40;99.90
23063;DHT22;11699;43.704;10.430;2023-08-31T06:08:21;18.40;99.90
23063;DHT22;11699;43.704;10.430;2023-08-31T06:10:48;18.60;99.90
23063;DHT22;11699;43.704;10.430;2023-08-31T06:13:15;18.70;99.90
23063;DHT22;11699;43.704;10.430;2023-08-31T06:15:43;18.80;99.90
23063;DHT22;11699;43.704;10.430;2023-08-31T06:18:13;18.90;99.90
23063;DHT22;11699;43.704;10.430;2023-08-31T06:20:40;18.80;99.90
23063;DHT22;11699;43.704;10.430;2023-08-31T06:23:09;18.90;99.90
23063;DHT22;11699;43.704;10.430;2023-08-31T06:25:36;19.00;99.90
23063;DHT22;11699;43.704;10.430;2023-08-31T06:28:04;18.90;99.90
23063;DHT22;11699;43.704;10.430;2023-08-31T06:30:34;18.90;99.90
23063;DHT22;11699;43.704;10.430;2023-08-31T06:33:01;18.80;99.90
23063;DHT22;11699;43.704;10.430;2023-08-31T06:35:30;18.80;99.90
23063;DHT22;11699;43.704;10.430;2023-08-31T06:37:57;18.90;99.90
23063;DHT22;11699;43.704;10.430;2023-08-31T06:40:25;19.00;99.90
23063;DHT22;11699;43.704;10.430;2023-08-31T06:42:52;19.10;99.90
23063;DHT22;11699;43.704;10.430;2023-08-31T06:45:19;19.10;99.90
23063;DHT22;11699;43.704;10.430;2023-08-31T06:47:46;19.30;99.90
23063;DHT22;11699;43.704;10.430;2023-08-31T06:50:14;19.30;99.90
23063;DHT22;11699;43.704;10.430;2023-08-31T06:52:43;19.40;99.90
23063;DHT22;11699;43.704;10.430;2023-08-31T06:55:12;19.40;99.90
23063;DHT22;11699;43.704;10.430;2023-08-31T06:57:39;19.30;99.90
23063;DHT22;11699;43.704;10.430;2023-08-31T07:00:08;19.30;99.90
23063;DHT22;11699;43.704;10.430;2023-08-31T07:02:40;19.30;99.90
23063;DHT22;11699;43.704;10.430;2023-08-31T07:05:09;19.40;99.90
23063;DHT22;11699;43.704;10.430;2023-08-31T07:07:37;20.00;99.90
23063;DHT22;11699;43.704;10.430;2023-08-31T07:10:07;20.80;99.90
23063;DHT22;11699;43.704;10.430;2023-08-31T07:12:34;21.80;99.90
23063;DHT22;11699;43.704;10.430;2023-08-31T07:15:01;22.60;99.90
23063;DHT22;11699;43.704;10.430;2023-08-31T07:17:29;23.10;99.90
23063;DHT22;11699;43.704;10.430;2023-08-31T07:19:56;23.70;99.90
23063;DHT22;11699;43.704;10.430;2023-08-31T07:22:24;23.90;99.90
23063;DHT22;11699;43.704;10.430;2023-08-31T07:24:51;24.30;99.90
23063;DHT22;11699;43.704;10.430;2023-08-31T07:27:20;24.60;99.90
23063;DHT22;11699;43.704;10.430;2023-08-31T07:29:47;24.60;99.90
23063;DHT22;11699;43.704;10.430;2023-08-31T07:32:14;24.10;99.90
23063;DHT22;11699;43.704;10.430;2023-08-31T07:34:41;24.10;99.90
23063;DHT22;11699;43.704;10.430;2023-08-31T07:37:08;24.50;99.90
23063;DHT22;11699;43.704;10.430;2023-08-31T07:39:36;25.10;99.90
23063;DHT22;11699;43.704;10.430;2023-08-31T07:42:05;25.40;99.90
23063;DHT22;11699;43.704;10.430;2023-08-31T07:44:33;25.90;99.90
23063;DHT22;11699;43.704;10.430;2023-08-31T07:47:01;25.50;99.90
23063;DHT22;11699;43.704;10.430;2023-08-31T07:49:28;24.90;99.90
23063;DHT22;11699;43.704;10.430;2023-08-31T07:51:55;24.40;99.90
23063;DHT22;11699;43.704;10.430;2023-08-31T07:54:23;24.30;99.90
23063;DHT22;11699;43.704;10.430;2023-08-31T07:56:50;24.00;99.90
23063;DHT22;11699;43.704;10.430;2023-08-31T07:59:18;23.70;99.90
23063;DHT22;11699;43.704;10.430;2023-08-31T08:01:47;23.50;99.90
23063;DHT22;11699;43.704;10.430;2023-08-31T08:04:14;23.40;99.90
23063;DHT22;11699;43.704;10.430;2023-08-31T08:06:45;24.00;99.90
23063;DHT22;11699;43.704;10.430;2023-08-31T08:09:12;24.30;99.90
23063;DHT22;11699;43.704;10.430;2023-08-31T08:11:39;24.00;99.90
23063;DHT22;11699;43.704;10.430;2023-08-31T08:14:07;23.80;99.90
23063;DHT22;11699;43.704;10.430;2023-08-31T08:16:34;23.50;99.90
23063;DHT22;11699;43.704;10.430;2023-08-31T08:19:05;23.20;99.90
23063;DHT22;11699;43.704;10.430;2023-08-31T08:21:32;23.20;99.90
23063;DHT22;11699;43.704;10.430;2023-08-31T08:23:59;23.30;99.90
23063;DHT22;11699;43.704;10.430;2023-08-31T08:26:27;23.20;99.90
23063;DHT22;11699;43.704;10.430;2023-08-31T08:28:54;23.00;99.90
23063;DHT22;11699;43.704;10.430;2023-08-31T08:31:21;23.10;99.90
23063;DHT22;11699;43.704;10.430;2023-08-31T08:33:48;23.30;99.90
23063;DHT22;11699;43.704;10.430;2023-08-31T08:36:17;23.40;99.90
23063;DHT22;11699;43.704;10.430;2023-08-31T08:38:44;23.60;99.90
23063;DHT22;11699;43.704;10.430;2023-08-31T08:41:11;23.90;99.90
23063;DHT22;11699;43.704;10.430;2023-08-31T08:43:43;24.00;99.90
23063;DHT22;11699;43.704;10.430;2023-08-31T08:46:10;24.30;99.90
23063;DHT22;11699;43.704;10.430;2023-08-31T08:48:38;24.60;99.90
23063;DHT22;11699;43.704;10.430;2023-08-31T08:51:07;24.60;99.90
23063;DHT22;11699;43.704;10.430;2023-08-31T08:53:36;24.40;99.90
23063;DHT22;11699;43.704;10.430;2023-08-31T08:56:04;24.50;99.90
23063;DHT22;11699;43.704;10.430;2023-08-31T08:58:31;24.40;99.90
23063;DHT22;11699;43.704;10.430;2023-08-31T09:00:58;24.40;99.90
23063;DHT22;11699;43.704;10.430;2023-08-31T09:03:26;24.20;99.90
23063;DHT22;11699;43.704;10.430;2023-08-31T09:05:53;24.30;99.90
23063;DHT22;11699;43.704;10.430;2023-08-31T09:08:25;24.50;99.90
23063;DHT22;11699;43.704;10.430;2023-08-31T09:10:56;25.00;99.90
23063;DHT22;11699;43.704;10.430;2023-08-31T09:13:27;26.10;99.90
23063;DHT22;11699;43.704;10.430;2023-08-31T09:15:55;27.10;99.90
23063;DHT22;11699;43.704;10.430;2023-08-31T09:18:24;28.20;99.90
23063;DHT22;11699;43.704;10.430;2023-08-31T09:20:52;28.60;99.90
23063;DHT22;11699;43.704;10.430;2023-08-31T09:23:19;28.50;99.90
23063;DHT22;11699;43.704;10.430;2023-08-31T09:25:48;28.30;99.90
23063;DHT22;11699;43.704;10.430;2023-08-31T09:28:18;27.80;99.90
23063;DHT22;11699;43.704;10.430;2023-08-31T09:30:46;27.30;99.90
23063;DHT22;11699;43.704;10.430;2023-08-31T09:33:16;26.50;99.90
23063;DHT22;11699;43.704;10.430;2023-08-31T09:35:48;26.20;99.90
23063;DHT22;11699;43.704;10.430;2023-08-31T09:38:16;26.30;99.90
23063;DHT22;11699;43.704;10.430;2023-08-31T09:40:44;26.40;99.90
23063;DHT22;11699;43.704;10.430;2023-08-31T09:43:11;27.00;99.90
23063;DHT22;11699;43.704;10.430;2023-08-31T09:45:40;28.10;99.90
23063;DHT22;11699;43.704;10.430;2023-08-31T09:48:07;28.80;99.90
23063;DHT22;11699;43.704;10.430;2023-08-31T09:50:35;29.80;99.90
23063;DHT22;11699;43.704;10.430;2023-08-31T09:53:04;30.20;99.90
23063;DHT22;11699;43.704;10.430;2023-08-31T09:55:32;30.70;99.90
23063;DHT22;11699;43.704;10.430;2023-08-31T09:58:01;31.10;99.90
23063;DHT22;11699;43.704;10.430;2023-08-31T10:00:30;31.40;99.90
23063;DHT22;11699;43.704;10.430;2023-08-31T10:03:02;31.80;99.90
23063;DHT22;11699;43.704;10.430;2023-08-31T10:05:30;32.30;99.90
23063;DHT22;11699;43.704;10.430;2023-08-31T10:07:58;32.20;99.90
23063;DHT22;11699;43.704;10.430;2023-08-31T10:10:28;32.30;99.90
23063;DHT22;11699;43.704;10.430;2023-08-31T10:12:55;32.40;99.90
23063;DHT22;11699;43.704;10.430;2023-08-31T10:15:23;32.60;99.90
23063;DHT22;11699;43.704;10.430;2023-08-31T10:17:53;32.90;99.90
23063;DHT22;11699;43.704;10.430;2023-08-31T10:20:22;33.30;99.90
23063;DHT22;11699;43.704;10.430;2023-08-31T10:22:49;32.60;99.90
23063;DHT22;11699;43.704;10.430;2023-08-31T10:25:16;32.00;99.90
23063;DHT22;11699;43.704;10.430;2023-08-31T10:27:44;32.20;99.90
23063;DHT22;11699;43.704;10.430;2023-08-31T10:33:21;31.60;99.90
23063;DHT22;11699;43.704;10.430;2023-08-31T10:35:54;30.70;99.90
23063;DHT22;11699;43.704;10.430;2023-08-31T10:38:26;30.40;99.90
23063;DHT22;11699;43.704;10.430;2023-08-31T10:41:03;30.80;99.90
23063;DHT22;11699;43.704;10.430;2023-08-31T10:43:46;30.80;99.90
23063;DHT22;11699;43.704;10.430;2023-08-31T10:46:18;31.40;99.90
23063;DHT22;11699;43.704;10.430;2023-08-31T10:48:49;31.60;99.90
23063;DHT22;11699;43.704;10.430;2023-08-31T10:51:18;30.50;99.90
23063;DHT22;11699;43.704;10.430;2023-08-31T10:53:48;30.60;99.90
23063;DHT22;11699;43.704;10.430;2023-08-31T10:56:16;31.50;99.90
23063;DHT22;11699;43.704;10.430;2023-08-31T10:58:45;31.40;99.90
23063;DHT22;11699;43.704;10.430;2023-08-31T11:01:51;30.60;99.90
23063;DHT22;11699;43.704;10.430;2023-08-31T11:04:19;30.00;99.90
23063;DHT22;11699;43.704;10.430;2023-08-31T11:06:48;30.10;99.90
23063;DHT22;11699;43.704;10.430;2023-08-31T11:09:19;30.30;99.90
23063;DHT22;11699;43.704;10.430;2023-08-31T11:11:47;30.60;99.90
23063;DHT22;11699;43.704;10.430;2023-08-31T11:14:14;30.60;99.90
23063;DHT22;11699;43.704;10.430;2023-08-31T11:16:43;30.10;99.90
23063;DHT22;11699;43.704;10.430;2023-08-31T11:19:10;29.20;99.90
23063;DHT22;11699;43.704;10.430;2023-08-31T11:21:37;29.10;99.90
23063;DHT22;11699;43.704;10.430;2023-08-31T11:24:07;28.90;99.90
23063;DHT22;11699;43.704;10.430;2023-08-31T11:26:35;28.30;99.90
23063;DHT22;11699;43.704;10.430;2023-08-31T11:29:06;28.00;99.90
23063;DHT22;11699;43.704;10.430;2023-08-31T11:31:38;28.00;99.90
23063;DHT22;11699;43.704;10.430;2023-08-31T11:34:06;27.80;99.90
23063;DHT22;11699;43.704;10.430;2023-08-31T11:36:33;27.70;99.90
23063;DHT22;11699;43.704;10.430;2023-08-31T11:39:01;27.60;99.90
23063;DHT22;11699;43.704;10.430;2023-08-31T11:41:32;27.30;99.90
23063;DHT22;11699;43.704;10.430;2023-08-31T11:44:03;27.20;99.90
23063;DHT22;11699;43.704;10.430;2023-08-31T11:46:31;27.10;99.90
23063;DHT22;11699;43.704;10.430;2023-08-31T11:48:59;27.70;99.90
23063;DHT22;11699;43.704;10.430;2023-08-31T11:51:26;28.00;99.90
23063;DHT22;11699;43.704;10.430;2023-08-31T11:53:55;28.00;99.90
23063;DHT22;11699;43.704;10.430;2023-08-31T11:56:24;27.90;99.90
23063;DHT22;11699;43.704;10.430;2023-08-31T11:58:53;27.70;99.90
23063;DHT22;11699;43.704;10.430;2023-08-31T12:01:21;28.70;99.90
23063;DHT22;11699;43.704;10.430;2023-08-31T12:03:49;29.90;99.90
23063;DHT22;11699;43.704;10.430;2023-08-31T12:06:16;30.80;99.90
23063;DHT22;11699;43.704;10.430;2023-08-31T12:08:44;31.40;99.90
23063;DHT22;11699;43.704;10.430;2023-08-31T12:11:12;31.70;99.90
23063;DHT22;11699;43.704;10.430;2023-08-31T12:13:40;32.00;99.90
23063;DHT22;11699;43.704;10.430;2023-08-31T12:16:15;32.40;99.90
23063;DHT22;11699;43.704;10.430;2023-08-31T12:18:43;32.30;99.90
23063;DHT22;11699;43.704;10.430;2023-08-31T12:21:11;31.50;99.90
23063;DHT22;11699;43.704;10.430;2023-08-31T12:23:38;31.00;99.90
23063;DHT22;11699;43.704;10.430;2023-08-31T12:26:06;30.60;99.90
23063;DHT22;11699;43.704;10.430;2023-08-31T12:28:34;30.00;99.90
23063;DHT22;11699;43.704;10.430;2023-08-31T12:31:01;29.50;99.90
23063;DHT22;11699;43.704;10.430;2023-08-31T12:33:31;29.50;99.90
23063;DHT22;11699;43.704;10.430;2023-08-31T12:35:58;29.60;99.90
23063;DHT22;11699;43.704;10.430;2023-08-31T12:38:26;30.00;99.90
23063;DHT22;11699;43.704;10.430;2023-08-31T12:40:53;30.30;99.90
23063;DHT22;11699;43.704;10.430;2023-08-31T12:43:20;30.70;99.90
23063;DHT22;11699;43.704;10.430;2023-08-31T12:45:47;31.20;99.90
23063;DHT22;11699;43.704;10.430;2023-08-31T12:48:15;32.10;99.90
23063;DHT22;11699;43.704;10.430;2023-08-31T12:50:43;32.40;99.90
23063;DHT22;11699;43.704;10.430;2023-08-31T12:53:10;32.60;99.90
23063;DHT22;11699;43.704;10.430;2023-08-31T12:55:37;32.50;99.90
23063;DHT22;11699;43.704;10.430;2023-08-31T12:58:05;32.00;99.90
23063;DHT22;11699;43.704;10.430;2023-08-31T13:00:32;31.70;99.90
23063;DHT22;11699;43.704;10.430;2023-08-31T13:02:59;31.80;99.90
23063;DHT22;11699;43.704;10.430;2023-08-31T13:05:27;32.00;99.90
23063;DHT22;11699;43.704;10.430;2023-08-31T13:07:56;32.10;99.90
23063;DHT22;11699;43.704;10.430;2023-08-31T13:10:23;31.90;99.90
23063;DHT22;11699;43.704;10.430;2023-08-31T13:12:50;31.40;99.90
23063;DHT22;11699;43.704;10.430;2023-08-31T13:15:18;30.80;99.90
23063;DHT22;11699;43.704;10.430;2023-08-31T13:17:45;30.70;99.90
23063;DHT22;11699;43.704;10.430;2023-08-31T13:20:12;30.80;99.90
23063;DHT22;11699;43.704;10.430;2023-08-31T13:22:39;31.20;99.90
23063;DHT22;11699;43.704;10.430;2023-08-31T13:25:08;31.50;99.90
23063;DHT22;11699;43.704;10.430;2023-08-31T13:27:37;31.40;99.90
23063;DHT22;11699;43.704;10.430;2023-08-31T13:30:05;31.50;99.90
23063;DHT22;11699;43.704;10.430;2023-08-31T13:32:33;31.50;99.90
23063;DHT22;11699;43.704;10.430;2023-08-31T13:35:00;31.50;99.90
23063;DHT22;11699;43.704;10.430;2023-08-31T13:37:27;31.70;99.90
23063;DHT22;11699;43.704;10.430;2023-08-31T13:39:54;31.70;99.90
23063;DHT22;11699;43.704;10.430;2023-08-31T13:42:23;31.80;99.90
23063;DHT22;11699;43.704;10.430;2023-08-31T13:44:51;31.10;99.90
23063;DHT22;11699;43.704;10.430;2023-08-31T13:47:18;30.40;99.90
23063;DHT22;11699;43.704;10.430;2023-08-31T13:49:45;29.60;99.90
23063;DHT22;11699;43.704;10.430;2023-08-31T13:52:12;29.00;99.90
23063;DHT22;11699;43.704;10.430;2023-08-31T13:54:39;28.50;99.90
23063;DHT22;11699;43.704;10.430;2023-08-31T13:57:06;27.80;99.90
23063;DHT22;11699;43.704;10.430;2023-08-31T13:59:35;27.30;99.90
23063;DHT22;11699;43.704;10.430;2023-08-31T14:02:02;27.30;99.90
23063;DHT22;11699;43.704;10.430;2023-08-31T14:04:30;27.30;99.90
23063;DHT22;11699;43.704;10.430;2023-08-31T14:06:57;27.10;99.90
23063;DHT22;11699;43.704;10.430;2023-08-31T14:09:24;27.20;99.90
23063;DHT22;11699;43.704;10.430;2023-08-31T14:11:52;27.20;99.90
23063;DHT22;11699;43.704;10.430;2023-08-31T14:14:20;27.20;99.90
23063;DHT22;11699;43.704;10.430;2023-08-31T14:16:49;27.00;99.90
23063;DHT22;11699;43.704;10.430;2023-08-31T14:19:16;26.90;99.90
23063;DHT22;11699;43.704;10.430;2023-08-31T14:21:44;26.90;99.90
23063;DHT22;11699;43.704;10.430;2023-08-31T14:24:11;26.70;99.90
23063;DHT22;11699;43.704;10.430;2023-08-31T14:26:38;26.60;99.90
23063;DHT22;11699;43.704;10.430;2023-08-31T14:29:05;26.50;99.90
23063;DHT22;11699;43.704;10.430;2023-08-31T14:31:33;26.40;99.90
23063;DHT22;11699;43.704;10.430;2023-08-31T14:34:02;26.60;99.90
23063;DHT22;11699;43.704;10.430;2023-08-31T14:36:29;27.00;99.90
23063;DHT22;11699;43.704;10.430;2023-08-31T14:38:57;27.10;99.90
23063;DHT22;11699;43.704;10.430;2023-08-31T14:41:24;27.40;99.90
23063;DHT22;11699;43.704;10.430;2023-08-31T14:43:51;27.60;99.90
23063;DHT22;11699;43.704;10.430;2023-08-31T14:46:18;27.70;99.90
23063;DHT22;11699;43.704;10.430;2023-08-31T14:48:47;27.80;99.90
23063;DHT22;11699;43.704;10.430;2023-08-31T14:51:17;27.90;99.90
23063;DHT22;11699;43.704;10.430;2023-08-31T14:53:44;27.90;99.90
23063;DHT22;11699;43.704;10.430;2023-08-31T14:56:11;28.10;99.90
23063;DHT22;11699;43.704;10.430;2023-08-31T14:58:38;28.00;99.90
23063;DHT22;11699;43.704;10.430;2023-08-31T15:01:05;27.80;99.90
23063;DHT22;11699;43.704;10.430;2023-08-31T15:03:33;27.70;99.90
23063;DHT22;11699;43.704;10.430;2023-08-31T15:06:00;27.60;99.90
23063;DHT22;11699;43.704;10.430;2023-08-31T15:08:37;27.50;99.90
23063;DHT22;11699;43.704;10.430;2023-08-31T15:11:04;27.50;99.90
23063;DHT22;11699;43.704;10.430;2023-08-31T15:13:31;27.40;99.90
23063;DHT22;11699;43.704;10.430;2023-08-31T15:15:58;27.20;99.90
23063;DHT22;11699;43.704;10.430;2023-08-31T15:18:26;27.10;99.90
23063;DHT22;11699;43.704;10.430;2023-08-31T15:20:53;27.00;99.90
23063;DHT22;11699;43.704;10.430;2023-08-31T15:23:21;27.00;99.90
23063;DHT22;11699;43.704;10.430;2023-08-31T15:25:49;27.00;99.90